sensor_id;sensor_type;location;lat;lon;timestamp;pressure;altitude;pressure_sealevel;temperature;humidity
24306;BME280;12423;48.768;8.850;2023-01-19T00:01:24;95913.13;;;-3.92;100.00
24306;BME280;12423;48.768;8.850;2023-01-19T00:03:25;95914.47;;;-4.02;100.00
24306;BME280;12423;48.768;8.850;2023-01-19T00:05:26;95918.97;;;-4.05;100.00
24306;BME280;12423;48.768;8.850;2023-01-19T00:07:28;95914.69;;;-3.87;100.00
24306;BME280;12423;48.768;8.850;2023-01-19T00:09:29;95924.75;;;-3.99;100.00
24306;BME280;12423;48.768;8.850;2023-01-19T00:11:33;95918.47;;;-4.33;100.00
24306;BME280;12423;48.768;8.850;2023-01-19T00:13:34;95912.22;;;-4.29;100.00
24306;BME280;12423;48.768;8.850;2023-01-19T00:15:35;95914.94;;;-4.32;100.00
24306;BME280;12423;48.768;8.850;2023-01-19T00:17:36;95912.81;;;-4.42;100.00
24306;BME280;12423;48.768;8.850;2023-01-19T00:19:37;95910.50;;;-4.49;100.00
24306;BME280;12423;48.768;8.850;2023-01-19T00:21:38;95908.78;;;-4.50;100.00
24306;BME280;12423;48.768;8.850;2023-01-19T00:23:39;95907.03;;;-4.49;100.00
24306;BME280;12423;48.768;8.850;2023-01-19T00:25:42;95913.31;;;-4.53;100.00
24306;BME280;12423;48.768;8.850;2023-01-19T00:27:43;95913.69;;;-4.63;100.00
24306;BME280;12423;48.768;8.850;2023-01-19T00:29:48;95911.34;;;-4.48;100.00
24306;BME280;12423;48.768;8.850;2023-01-19T00:31:50;95913.75;;;-4.43;100.00
24306;BME280;12423;48.768;8.850;2023-01-19T00:33:51;95917.44;;;-4.68;100.00
24306;BME280;12423;48.768;8.850;2023-01-19T00:35:52;95914.13;;;-4.72;100.00
24306;BME280;12423;48.768;8.850;2023-01-19T00:37:57;95916.28;;;-4.42;100.00
24306;BME280;12423;48.768;8.850;2023-01-19T00:39:58;95913.44;;;-4.37;100.00
24306;BME280;12423;48.768;8.850;2023-01-19T00:41:59;95920.34;;;-4.76;100.00
24306;BME280;12423;48.768;8.850;2023-01-19T00:44:19;95922.50;;;-4.86;100.00
24306;BME280;12423;48.768;8.850;2023-01-19T00:46:20;95921.81;;;-4.89;100.00
24306;BME280;12423;48.768;8.850;2023-01-19T00:48:26;95922.38;;;-4.83;100.00
24306;BME280;12423;48.768;8.850;2023-01-19T00:50:28;95919.91;;;-4.65;100.00
24306;BME280;12423;48.768;8.850;2023-01-19T00:52:30;95915.66;;;-4.68;100.00
24306;BME280;12423;48.768;8.850;2023-01-19T00:54:31;95921.63;;;-4.45;100.00
24306;BME280;12423;48.768;8.850;2023-01-19T00:56:32;95925.00;;;-4.43;100.00
24306;BME280;12423;48.768;8.850;2023-01-19T00:58:33;95917.94;;;-4.41;100.00
24306;BME280;12423;48.768;8.850;2023-01-19T01:00:34;95926.72;;;-4.42;100.00
24306;BME280;12423;48.768;8.850;2023-01-19T01:02:36;95921.19;;;-4.36;100.00
24306;BME280;12423;48.768;8.850;2023-01-19T01:04:38;95926.19;;;-4.50;100.00
24306;BME280;12423;48.768;8.850;2023-01-19T01:06:39;95928.25;;;-4.38;100.00
24306;BME280;12423;48.768;8.850;2023-01-19T01:08:40;95932.38;;;-4.32;100.00
24306;BME280;12423;48.768;8.850;2023-01-19T01:10:41;95925.25;;;-4.29;100.00
24306;BME280;12423;48.768;8.850;2023-01-19T01:12:42;95926.97;;;-4.29;100.00
24306;BME280;12423;48.768;8.850;2023-01-19T01:14:43;95932.00;;;-4.24;100.00
24306;BME280;12423;48.768;8.850;2023-01-19T01:16:44;95932.44;;;-4.34;100.00
24306;BME280;12423;48.768;8.850;2023-01-19T01:18:45;95931.63;;;-4.36;100.00
24306;BME280;12423;48.768;8.850;2023-01-19T01:20:47;95937.59;;;-4.32;100.00
24306;BME280;12423;48.768;8.850;2023-01-19T01:22:50;95932.69;;;-4.40;100.00
24306;BME280;12423;48.768;8.850;2023-01-19T01:24:51;95941.31;;;-4.19;100.00
24306;BME280;12423;48.768;8.850;2023-01-19T01:26:52;95943.38;;;-4.26;100.00
24306;BME280;12423;48.768;8.850;2023-01-19T01:28:53;95943.38;;;-4.26;100.00
24306;BME280;12423;48.768;8.850;2023-01-19T01:30:55;95941.41;;;-4.41;100.00
24306;BME280;12423;48.768;8.850;2023-01-19T01:32:56;95944.91;;;-4.21;100.00
24306;BME280;12423;48.768;8.850;2023-01-19T01:34:57;95939.06;;;-4.27;100.00
24306;BME280;12423;48.768;8.850;2023-01-19T01:36:58;95935.88;;;-4.14;100.00
24306;BME280;12423;48.768;8.850;2023-01-19T01:38:59;95935.47;;;-4.05;100.00
24306;BME280;12423;48.768;8.850;2023-01-19T01:41:00;95937.59;;;-3.94;100.00
24306;BME280;12423;48.768;8.850;2023-01-19T01:43:01;95939.53;;;-3.99;100.00
24306;BME280;12423;48.768;8.850;2023-01-19T01:45:12;95938.56;;;-3.97;100.00
24306;BME280;12423;48.768;8.850;2023-01-19T01:47:37;95935.31;;;-3.83;100.00
24306;BME280;12423;48.768;8.850;2023-01-19T01:49:40;95940.69;;;-4.05;100.00
24306;BME280;12423;48.768;8.850;2023-01-19T01:51:45;95940.47;;;-3.81;100.00
24306;BME280;12423;48.768;8.850;2023-01-19T01:53:51;95942.66;;;-3.72;100.00
24306;BME280;12423;48.768;8.850;2023-01-19T01:55:55;95938.69;;;-3.62;100.00
24306;BME280;12423;48.768;8.850;2023-01-19T01:58:00;95928.50;;;-3.49;100.00
24306;BME280;12423;48.768;8.850;2023-01-19T02:00:04;95934.88;;;-3.55;100.00
24306;BME280;12423;48.768;8.850;2023-01-19T02:02:09;95931.88;;;-3.47;100.00
24306;BME280;12423;48.768;8.850;2023-01-19T02:04:30;95936.22;;;-3.65;100.00
24306;BME280;12423;48.768;8.850;2023-01-19T02:06:32;95939.75;;;-3.66;100.00
24306;BME280;12423;48.768;8.850;2023-01-19T02:08:41;95941.81;;;-3.73;100.00
24306;BME280;12423;48.768;8.850;2023-01-19T02:11:03;95938.06;;;-3.67;100.00
24306;BME280;12423;48.768;8.850;2023-01-19T02:13:23;95934.19;;;-3.77;100.00
24306;BME280;12423;48.768;8.850;2023-01-19T02:15:25;95934.47;;;-3.83;100.00
24306;BME280;12423;48.768;8.850;2023-01-19T02:17:26;95929.47;;;-3.69;100.00
24306;BME280;12423;48.768;8.850;2023-01-19T02:19:30;95928.69;;;-3.71;100.00
24306;BME280;12423;48.768;8.850;2023-01-19T02:21:35;95929.13;;;-3.80;100.00
24306;BME280;12423;48.768;8.850;2023-01-19T02:23:41;95925.66;;;-3.81;100.00
24306;BME280;12423;48.768;8.850;2023-01-19T02:25:43;95939.13;;;-3.71;100.00
24306;BME280;12423;48.768;8.850;2023-01-19T02:27:44;95940.09;;;-3.93;100.00
24306;BME280;12423;48.768;8.850;2023-01-19T02:29:45;95938.97;;;-4.06;100.00
24306;BME280;12423;48.768;8.850;2023-01-19T02:31:46;95940.22;;;-3.94;100.00
24306;BME280;12423;48.768;8.850;2023-01-19T02:33:47;95935.56;;;-3.87;100.00
24306;BME280;12423;48.768;8.850;2023-01-19T02:35:49;95937.72;;;-3.78;100.00
24306;BME280;12423;48.768;8.850;2023-01-19T02:37:50;95942.56;;;-3.90;100.00
24306;BME280;12423;48.768;8.850;2023-01-19T02:39:56;95934.50;;;-4.02;100.00
24306;BME280;12423;48.768;8.850;2023-01-19T02:42:00;95936.25;;;-4.03;100.00
24306;BME280;12423;48.768;8.850;2023-01-19T02:44:02;95943.63;;;-4.13;100.00
24306;BME280;12423;48.768;8.850;2023-01-19T02:46:04;95935.34;;;-4.02;100.00
24306;BME280;12423;48.768;8.850;2023-01-19T02:48:05;95944.50;;;-3.93;100.00
24306;BME280;12423;48.768;8.850;2023-01-19T02:50:26;95938.56;;;-3.97;100.00
24306;BME280;12423;48.768;8.850;2023-01-19T02:52:26;95928.00;;;-3.94;100.00
24306;BME280;12423;48.768;8.850;2023-01-19T02:56:43;95935.63;;;-3.89;100.00
24306;BME280;12423;48.768;8.850;2023-01-19T02:59:01;95941.81;;;-4.11;100.00
24306;BME280;12423;48.768;8.850;2023-01-19T03:01:09;95931.03;;;-4.03;100.00
24306;BME280;12423;48.768;8.850;2023-01-19T03:03:32;95942.44;;;-3.86;100.00
24306;BME280;12423;48.768;8.850;2023-01-19T03:05:50;95942.78;;;-4.13;100.00
24306;BME280;12423;48.768;8.850;2023-01-19T03:07:55;95940.59;;;-4.22;100.00
24306;BME280;12423;48.768;8.850;2023-01-19T03:10:01;95943.94;;;-4.00;100.00
24306;BME280;12423;48.768;8.850;2023-01-19T03:14:23;95947.88;;;-4.10;100.00
24306;BME280;12423;48.768;8.850;2023-01-19T03:18:31;95948.41;;;-4.22;100.00
24306;BME280;12423;48.768;8.850;2023-01-19T03:20:33;95946.09;;;-4.29;100.00
24306;BME280;12423;48.768;8.850;2023-01-19T03:22:34;95943.78;;;-4.16;100.00
24306;BME280;12423;48.768;8.850;2023-01-19T03:24:36;95944.91;;;-4.21;100.00
24306;BME280;12423;48.768;8.850;2023-01-19T03:26:42;95958.19;;;-4.07;100.00
24306;BME280;12423;48.768;8.850;2023-01-19T03:28:44;95945.41;;;-4.13;100.00
24306;BME280;12423;48.768;8.850;2023-01-19T03:30:46;95948.88;;;-3.94;100.00
24306;BME280;12423;48.768;8.850;2023-01-19T03:32:50;95945.91;;;-4.05;100.00
24306;BME280;12423;48.768;8.850;2023-01-19T03:34:53;95951.97;;;-4.04;100.00
24306;BME280;12423;48.768;8.850;2023-01-19T03:36:56;95950.72;;;-3.96;100.00
24306;BME280;12423;48.768;8.850;2023-01-19T03:38:58;95942.56;;;-3.90;100.00
24306;BME280;12423;48.768;8.850;2023-01-19T03:41:01;95952.25;;;-3.92;100.00
24306;BME280;12423;48.768;8.850;2023-01-19T03:43:02;95950.53;;;-3.93;100.00
24306;BME280;12423;48.768;8.850;2023-01-19T03:45:03;95953.50;;;-3.81;100.00
24306;BME280;12423;48.768;8.850;2023-01-19T03:47:05;95944.69;;;-3.79;100.00
24306;BME280;12423;48.768;8.850;2023-01-19T03:49:06;95948.72;;;-3.91;100.00
24306;BME280;12423;48.768;8.850;2023-01-19T03:51:08;95944.22;;;-3.87;100.00
24306;BME280;12423;48.768;8.850;2023-01-19T03:53:11;95950.00;;;-3.80;100.00
24306;BME280;12423;48.768;8.850;2023-01-19T03:55:12;95947.38;;;-3.80;100.00
24306;BME280;12423;48.768;8.850;2023-01-19T03:57:13;95960.38;;;-3.79;100.00
24306;BME280;12423;48.768;8.850;2023-01-19T03:59:14;95955.75;;;-3.93;100.00
24306;BME280;12423;48.768;8.850;2023-01-19T04:01:17;95959.88;;;-3.87;100.00
24306;BME280;12423;48.768;8.850;2023-01-19T04:03:22;95964.38;;;-4.10;100.00
24306;BME280;12423;48.768;8.850;2023-01-19T04:05:23;95967.59;;;-4.04;100.00
24306;BME280;12423;48.768;8.850;2023-01-19T04:07:24;95968.91;;;-3.94;100.00
24306;BME280;12423;48.768;8.850;2023-01-19T04:09:25;95972.84;;;-3.85;100.00
24306;BME280;12423;48.768;8.850;2023-01-19T04:11:26;95971.50;;;-3.75;100.00
24306;BME280;12423;48.768;8.850;2023-01-19T04:13:28;95973.09;;;-3.54;100.00
24306;BME280;12423;48.768;8.850;2023-01-19T04:15:30;95966.41;;;-3.59;100.00
24306;BME280;12423;48.768;8.850;2023-01-19T04:17:31;95975.28;;;-3.44;100.00
24306;BME280;12423;48.768;8.850;2023-01-19T04:19:31;95971.81;;;-3.45;100.00
24306;BME280;12423;48.768;8.850;2023-01-19T04:21:32;95965.47;;;-3.39;100.00
24306;BME280;12423;48.768;8.850;2023-01-19T04:23:33;95971.53;;;-3.39;100.00
24306;BME280;12423;48.768;8.850;2023-01-19T04:25:34;95981.13;;;-3.39;100.00
24306;BME280;12423;48.768;8.850;2023-01-19T04:27:35;95963.19;;;-3.28;100.00
24306;BME280;12423;48.768;8.850;2023-01-19T04:29:36;95969.13;;;-3.24;100.00
24306;BME280;12423;48.768;8.850;2023-01-19T04:31:37;95969.81;;;-3.21;100.00
24306;BME280;12423;48.768;8.850;2023-01-19T04:33:37;95959.81;;;-3.12;100.00
24306;BME280;12423;48.768;8.850;2023-01-19T04:35:38;95965.28;;;-3.17;100.00
24306;BME280;12423;48.768;8.850;2023-01-19T04:37:39;95966.78;;;-3.30;100.00
24306;BME280;12423;48.768;8.850;2023-01-19T04:39:40;95969.41;;;-3.30;100.00
24306;BME280;12423;48.768;8.850;2023-01-19T04:41:40;95970.41;;;-3.33;100.00
24306;BME280;12423;48.768;8.850;2023-01-19T04:43:41;95977.63;;;-3.38;100.00
24306;BME280;12423;48.768;8.850;2023-01-19T04:45:42;95968.00;;;-3.38;100.00
24306;BME280;12423;48.768;8.850;2023-01-19T04:47:46;95977.63;;;-3.38;100.00
24306;BME280;12423;48.768;8.850;2023-01-19T04:49:46;95969.00;;;-3.40;100.00
24306;BME280;12423;48.768;8.850;2023-01-19T04:51:47;95973.38;;;-3.41;100.00
24306;BME280;12423;48.768;8.850;2023-01-19T04:53:48;95973.22;;;-3.38;100.00
24306;BME280;12423;48.768;8.850;2023-01-19T04:55:51;95980.31;;;-3.40;100.00
24306;BME280;12423;48.768;8.850;2023-01-19T04:57:53;95974.22;;;-3.40;100.00
24306;BME280;12423;48.768;8.850;2023-01-19T04:59:53;95977.44;;;-3.35;100.00
24306;BME280;12423;48.768;8.850;2023-01-19T05:01:54;95985.28;;;-3.35;100.00
24306;BME280;12423;48.768;8.850;2023-01-19T05:03:58;95979.28;;;-3.37;100.00
24306;BME280;12423;48.768;8.850;2023-01-19T05:06:00;95977.53;;;-3.37;100.00
24306;BME280;12423;48.768;8.850;2023-01-19T05:08:01;95983.81;;;-3.41;100.00
24306;BME280;12423;48.768;8.850;2023-01-19T05:10:02;95979.28;;;-3.37;100.00
24306;BME280;12423;48.768;8.850;2023-01-19T05:12:03;95984.09;;;-3.28;100.00
24306;BME280;12423;48.768;8.850;2023-01-19T05:14:03;95987.06;;;-3.36;100.00
24306;BME280;12423;48.768;8.850;2023-01-19T05:16:04;95984.84;;;-3.26;100.00
24306;BME280;12423;48.768;8.850;2023-01-19T05:18:06;95987.47;;;-3.26;100.00
24306;BME280;12423;48.768;8.850;2023-01-19T05:20:08;95987.31;;;-3.23;100.00
24306;BME280;12423;48.768;8.850;2023-01-19T05:22:09;95994.69;;;-3.31;100.00
24306;BME280;12423;48.768;8.850;2023-01-19T05:24:10;95993.44;;;-3.24;100.00
24306;BME280;12423;48.768;8.850;2023-01-19T05:26:11;96000.94;;;-3.35;100.00
24306;BME280;12423;48.768;8.850;2023-01-19T05:28:11;95998.19;;;-3.32;100.00
24306;BME280;12423;48.768;8.850;2023-01-19T05:30:12;95994.53;;;-3.28;100.00
24306;BME280;12423;48.768;8.850;2023-01-19T05:32:13;95998.66;;;-3.41;100.00
24306;BME280;12423;48.768;8.850;2023-01-19T05:34:14;96006.13;;;-3.53;100.00
24306;BME280;12423;48.768;8.850;2023-01-19T05:36:15;96006.28;;;-3.56;100.00
24306;BME280;12423;48.768;8.850;2023-01-19T05:38:16;96008.06;;;-3.56;100.00
24306;BME280;12423;48.768;8.850;2023-01-19T05:40:17;96007.56;;;-3.64;100.00
24306;BME280;12423;48.768;8.850;2023-01-19T05:42:19;96007.63;;;-3.66;100.00
24306;BME280;12423;48.768;8.850;2023-01-19T05:44:19;96005.72;;;-3.62;100.00
24306;BME280;12423;48.768;8.850;2023-01-19T05:46:21;96005.59;;;-3.59;100.00
24306;BME280;12423;48.768;8.850;2023-01-19T05:48:22;96012.47;;;-3.58;100.00
24306;BME280;12423;48.768;8.850;2023-01-19T05:50:23;96014.38;;;-3.62;100.00
24306;BME280;12423;48.768;8.850;2023-01-19T05:52:23;96013.34;;;-3.58;100.00
24306;BME280;12423;48.768;8.850;2023-01-19T05:54:24;96015.31;;;-3.63;100.00
24306;BME280;12423;48.768;8.850;2023-01-19T05:56:25;96014.25;;;-3.59;100.00
24306;BME280;12423;48.768;8.850;2023-01-19T05:58:26;96017.28;;;-3.68;100.00
24306;BME280;12423;48.768;8.850;2023-01-19T06:00:28;96024.81;;;-3.62;100.00
24306;BME280;12423;48.768;8.850;2023-01-19T06:02:29;96030.25;;;-3.66;100.00
24306;BME280;12423;48.768;8.850;2023-01-19T06:04:29;96032.22;;;-3.72;100.00
24306;BME280;12423;48.768;8.850;2023-01-19T06:06:30;96027.72;;;-3.68;100.00
24306;BME280;12423;48.768;8.850;2023-01-19T06:08:31;96025.28;;;-3.71;100.00
24306;BME280;12423;48.768;8.850;2023-01-19T06:10:32;96028.28;;;-3.61;100.00
24306;BME280;12423;48.768;8.850;2023-01-19T06:12:33;96032.47;;;-3.57;100.00
24306;BME280;12423;48.768;8.850;2023-01-19T06:14:34;96036.53;;;-3.52;100.00
24306;BME280;12423;48.768;8.850;2023-01-19T06:16:36;96039.81;;;-3.46;100.00
24306;BME280;12423;48.768;8.850;2023-01-19T06:18:37;96037.03;;;-3.43;100.00
24306;BME280;12423;48.768;8.850;2023-01-19T06:20:38;96042.13;;;-3.40;100.00
24306;BME280;12423;48.768;8.850;2023-01-19T06:22:38;96036.75;;;-3.37;100.00
24306;BME280;12423;48.768;8.850;2023-01-19T06:24:39;96029.84;;;-3.38;100.00
24306;BME280;12423;48.768;8.850;2023-01-19T06:26:40;96039.00;;;-3.48;100.00
24306;BME280;12423;48.768;8.850;2023-01-19T06:28:42;96035.75;;;-3.54;100.00
24306;BME280;12423;48.768;8.850;2023-01-19T06:30:53;96032.38;;;-3.56;100.00
24306;BME280;12423;48.768;8.850;2023-01-19T06:32:54;96035.06;;;-3.57;100.00
24306;BME280;12423;48.768;8.850;2023-01-19T06:34:55;96043.09;;;-3.62;100.00
24306;BME280;12423;48.768;8.850;2023-01-19T06:36:55;96048.19;;;-3.59;100.00
24306;BME280;12423;48.768;8.850;2023-01-19T06:38:56;96041.44;;;-3.63;100.00
24306;BME280;12423;48.768;8.850;2023-01-19T06:40:57;96039.44;;;-3.58;100.00
24306;BME280;12423;48.768;8.850;2023-01-19T06:42:58;96044.38;;;-3.52;100.00
24306;BME280;12423;48.768;8.850;2023-01-19T06:44:59;96050.47;;;-3.51;100.00
24306;BME280;12423;48.768;8.850;2023-01-19T06:46:59;96054.69;;;-3.48;100.00
24306;BME280;12423;48.768;8.850;2023-01-19T06:49:00;96046.63;;;-3.44;100.00
24306;BME280;12423;48.768;8.850;2023-01-19T06:51:01;96047.47;;;-3.43;100.00
24306;BME280;12423;48.768;8.850;2023-01-19T06:53:02;96048.47;;;-3.46;100.00
24306;BME280;12423;48.768;8.850;2023-01-19T06:55:03;96054.53;;;-3.45;100.00
24306;BME280;12423;48.768;8.850;2023-01-19T06:57:04;96053.84;;;-3.49;100.00
24306;BME280;12423;48.768;8.850;2023-01-19T06:59:04;96055.47;;;-3.46;100.00
24306;BME280;12423;48.768;8.850;2023-01-19T07:01:05;96053.69;;;-3.46;100.00
24306;BME280;12423;48.768;8.850;2023-01-19T07:03:06;96053.28;;;-3.56;100.00
24306;BME280;12423;48.768;8.850;2023-01-19T07:05:07;96048.97;;;-3.57;100.00
24306;BME280;12423;48.768;8.850;2023-01-19T07:07:08;96051.06;;;-3.65;100.00
24306;BME280;12423;48.768;8.850;2023-01-19T07:09:09;96048.69;;;-3.69;100.00
24306;BME280;12423;48.768;8.850;2023-01-19T07:11:12;96049.03;;;-3.77;100.00
24306;BME280;12423;48.768;8.850;2023-01-19T07:13:13;96052.41;;;-3.75;100.00
24306;BME280;12423;48.768;8.850;2023-01-19T07:15:14;96038.16;;;-3.68;100.00
24306;BME280;12423;48.768;8.850;2023-01-19T07:17:15;96055.66;;;-3.70;100.00
24306;BME280;12423;48.768;8.850;2023-01-19T07:19:16;96048.03;;;-3.75;100.00
24306;BME280;12423;48.768;8.850;2023-01-19T07:21:17;96057.22;;;-3.66;100.00
24306;BME280;12423;48.768;8.850;2023-01-19T07:23:18;96059.34;;;-3.74;100.00
24306;BME280;12423;48.768;8.850;2023-01-19T07:25:19;96047.81;;;-3.70;100.00
24306;BME280;12423;48.768;8.850;2023-01-19T07:27:20;96050.69;;;-3.76;100.00
24306;BME280;12423;48.768;8.850;2023-01-19T07:29:21;96054.94;;;-3.74;100.00
24306;BME280;12423;48.768;8.850;2023-01-19T07:31:22;96060.09;;;-3.72;100.00
24306;BME280;12423;48.768;8.850;2023-01-19T07:33:23;96047.06;;;-3.72;100.00
24306;BME280;12423;48.768;8.850;2023-01-19T07:35:25;96058.19;;;-3.68;100.00
24306;BME280;12423;48.768;8.850;2023-01-19T07:37:26;96055.44;;;-3.65;100.00
24306;BME280;12423;48.768;8.850;2023-01-19T07:39:27;96058.69;;;-3.60;100.00
24306;BME280;12423;48.768;8.850;2023-01-19T07:41:28;96051.44;;;-3.54;100.00
24306;BME280;12423;48.768;8.850;2023-01-19T07:43:28;96067.66;;;-3.47;100.00
24306;BME280;12423;48.768;8.850;2023-01-19T07:45:29;96068.09;;;-3.37;100.00
24306;BME280;12423;48.768;8.850;2023-01-19T07:47:30;96061.97;;;-3.36;100.00
24306;BME280;12423;48.768;8.850;2023-01-19T07:49:31;96055.03;;;-3.37;100.00
24306;BME280;12423;48.768;8.850;2023-01-19T07:51:32;96061.09;;;-3.37;100.00
24306;BME280;12423;48.768;8.850;2023-01-19T07:53:33;96056.59;;;-3.33;100.00
24306;BME280;12423;48.768;8.850;2023-01-19T07:55:34;96067.81;;;-3.31;100.00
24306;BME280;12423;48.768;8.850;2023-01-19T07:57:35;96068.09;;;-3.37;100.00
24306;BME280;12423;48.768;8.850;2023-01-19T07:59:35;96070.13;;;-3.44;100.00
24306;BME280;12423;48.768;8.850;2023-01-19T08:01:36;96077.06;;;-3.43;100.00
24306;BME280;12423;48.768;8.850;2023-01-19T08:03:37;96073.75;;;-3.46;100.00
24306;BME280;12423;48.768;8.850;2023-01-19T08:05:38;96086.94;;;-3.49;100.00
24306;BME280;12423;48.768;8.850;2023-01-19T08:07:39;96080.66;;;-3.45;100.00
24306;BME280;12423;48.768;8.850;2023-01-19T08:09:40;96088.69;;;-3.50;100.00
24306;BME280;12423;48.768;8.850;2023-01-19T08:11:41;96086.63;;;-3.43;100.00
24306;BME280;12423;48.768;8.850;2023-01-19T08:13:42;96090.81;;;-3.39;100.00
24306;BME280;12423;48.768;8.850;2023-01-19T08:15:43;96088.84;;;-3.34;100.00
24306;BME280;12423;48.768;8.850;2023-01-19T08:17:43;96096.09;;;-3.22;100.00
24306;BME280;12423;48.768;8.850;2023-01-19T08:19:44;96089.25;;;-3.05;100.00
24306;BME280;12423;48.768;8.850;2023-01-19T08:21:45;96096.94;;;-3.02;100.00
24306;BME280;12423;48.768;8.850;2023-01-19T08:23:52;96093.00;;;-2.92;100.00
24306;BME280;12423;48.768;8.850;2023-01-19T08:25:53;96086.09;;;-2.75;100.00
24306;BME280;12423;48.768;8.850;2023-01-19T08:27:54;96089.28;;;-2.69;100.00
24306;BME280;12423;48.768;8.850;2023-01-19T08:29:55;96092.56;;;-2.65;100.00
24306;BME280;12423;48.768;8.850;2023-01-19T08:31:56;96087.34;;;-2.65;100.00
24306;BME280;12423;48.768;8.850;2023-01-19T08:33:59;96096.88;;;-2.64;100.00
24306;BME280;12423;48.768;8.850;2023-01-19T08:36:00;96094.25;;;-2.64;100.00
24306;BME280;12423;48.768;8.850;2023-01-19T08:38:01;96094.09;;;-2.61;100.00
24306;BME280;12423;48.768;8.850;2023-01-19T08:40:02;96091.56;;;-2.63;100.00
24306;BME280;12423;48.768;8.850;2023-01-19T08:42:03;96097.19;;;-2.53;100.00
24306;BME280;12423;48.768;8.850;2023-01-19T08:44:04;96099.28;;;-2.42;100.00
24306;BME280;12423;48.768;8.850;2023-01-19T08:46:05;96103.38;;;-2.36;100.00
24306;BME280;12423;48.768;8.850;2023-01-19T08:48:06;96109.53;;;-2.37;100.00
24306;BME280;12423;48.768;8.850;2023-01-19T08:50:07;96110.75;;;-2.45;100.00
24306;BME280;12423;48.768;8.850;2023-01-19T08:52:08;96100.06;;;-2.40;100.00
24306;BME280;12423;48.768;8.850;2023-01-19T08:54:09;96107.06;;;-2.41;100.00
24306;BME280;12423;48.768;8.850;2023-01-19T08:56:10;96096.59;;;-2.41;100.00
24306;BME280;12423;48.768;8.850;2023-01-19T08:58:13;96102.91;;;-2.27;100.00
24306;BME280;12423;48.768;8.850;2023-01-19T09:00:13;96099.59;;;-2.13;100.00
24306;BME280;12423;48.768;8.850;2023-01-19T09:02:14;96106.16;;;-2.05;100.00
24306;BME280;12423;48.768;8.850;2023-01-19T09:04:15;96099.03;;;-1.85;100.00
24306;BME280;12423;48.768;8.850;2023-01-19T09:06:16;96100.56;;;-1.81;100.00
24306;BME280;12423;48.768;8.850;2023-01-19T09:08:17;96105.97;;;-1.84;100.00
24306;BME280;12423;48.768;8.850;2023-01-19T09:10:18;96111.75;;;-1.95;100.00
24306;BME280;12423;48.768;8.850;2023-01-19T09:12:19;96111.81;;;-1.96;100.00
24306;BME280;12423;48.768;8.850;2023-01-19T09:14:20;96118.06;;;-1.99;100.00
24306;BME280;12423;48.768;8.850;2023-01-19T09:16:21;96110.81;;;-1.94;100.00
24306;BME280;12423;48.768;8.850;2023-01-19T09:18:22;96120.13;;;-1.88;100.00
24306;BME280;12423;48.768;8.850;2023-01-19T09:20:23;96118.16;;;-1.83;100.00
24306;BME280;12423;48.768;8.850;2023-01-19T09:22:24;96114.19;;;-1.74;100.00
24306;BME280;12423;48.768;8.850;2023-01-19T09:24:25;96109.56;;;-1.69;100.00
24306;BME280;12423;48.768;8.850;2023-01-19T09:26:26;96104.47;;;-1.72;100.00
24306;BME280;12423;48.768;8.850;2023-01-19T09:28:27;96103.34;;;-1.67;100.00
24306;BME280;12423;48.768;8.850;2023-01-19T09:30:29;96107.31;;;-1.59;100.00
24306;BME280;12423;48.768;8.850;2023-01-19T09:32:30;96105.69;;;-1.62;100.00
24306;BME280;12423;48.768;8.850;2023-01-19T09:34:31;96119.50;;;-1.58;100.00
24306;BME280;12423;48.768;8.850;2023-01-19T09:36:31;96113.31;;;-1.57;100.00
24306;BME280;12423;48.768;8.850;2023-01-19T09:38:32;96110.38;;;-1.51;100.00
24306;BME280;12423;48.768;8.850;2023-01-19T09:40:36;96121.28;;;-1.43;100.00
24306;BME280;12423;48.768;8.850;2023-01-19T09:42:42;96114.25;;;-1.42;100.00
24306;BME280;12423;48.768;8.850;2023-01-19T09:44:46;96118.50;;;-1.40;100.00
24306;BME280;12423;48.768;8.850;2023-01-19T09:46:47;96109.47;;;-1.34;100.00
24306;BME280;12423;48.768;8.850;2023-01-19T09:48:53;96116.41;;;-1.33;100.00
24306;BME280;12423;48.768;8.850;2023-01-19T09:51:01;96121.06;;;-1.38;100.00
24306;BME280;12423;48.768;8.850;2023-01-19T09:53:08;96121.81;;;-1.36;100.00
24306;BME280;12423;48.768;8.850;2023-01-19T09:55:22;96122.47;;;-1.33;100.00
24306;BME280;12423;48.768;8.850;2023-01-19T09:57:25;96122.44;;;-1.15;100.00
24306;BME280;12423;48.768;8.850;2023-01-19T09:59:31;96123.19;;;-1.13;100.00
24306;BME280;12423;48.768;8.850;2023-01-19T10:03:36;96124.06;;;-0.97;100.00
24306;BME280;12423;48.768;8.850;2023-01-19T10:05:48;96126.41;;;-0.76;100.00
24306;BME280;12423;48.768;8.850;2023-01-19T10:08:31;96128.13;;;-0.59;100.00
24306;BME280;12423;48.768;8.850;2023-01-19T10:10:41;96129.53;;;-0.53;100.00
24306;BME280;12423;48.768;8.850;2023-01-19T10:13:00;96120.81;;;-0.54;100.00
24306;BME280;12423;48.768;8.850;2023-01-19T10:17:46;96117.53;;;-0.11;100.00
24306;BME280;12423;48.768;8.850;2023-01-19T10:19:51;96113.59;;;-0.04;100.00
24306;BME280;12423;48.768;8.850;2023-01-19T10:21:56;96115.66;;;-0.09;100.00
24306;BME280;12423;48.768;8.850;2023-01-19T10:24:05;96115.81;;;-0.12;100.00
24306;BME280;12423;48.768;8.850;2023-01-19T10:26:13;96116.00;;;-0.15;100.00
24306;BME280;12423;48.768;8.850;2023-01-19T10:28:16;96115.81;;;-0.12;100.00
24306;BME280;12423;48.768;8.850;2023-01-19T10:30:24;96122.41;;;-0.35;100.00
24306;BME280;12423;48.768;8.850;2023-01-19T10:32:33;96121.81;;;-0.41;100.00
24306;BME280;12423;48.768;8.850;2023-01-19T10:34:35;96124.38;;;-0.55;100.00
24306;BME280;12423;48.768;8.850;2023-01-19T10:36:38;96124.53;;;-0.58;100.00
24306;BME280;12423;48.768;8.850;2023-01-19T10:38:40;96120.75;;;-0.52;100.00
24306;BME280;12423;48.768;8.850;2023-01-19T10:40:49;96122.66;;;-0.40;100.00
24306;BME280;12423;48.768;8.850;2023-01-19T10:42:52;96116.91;;;-0.31;100.00
24306;BME280;12423;48.768;8.850;2023-01-19T10:44:53;96106.72;;;-0.21;100.00
24306;BME280;12423;48.768;8.850;2023-01-19T10:46:56;96112.09;;;-0.08;100.00
24306;BME280;12423;48.768;8.850;2023-01-19T10:48:58;96116.41;;;-0.07;100.00
24306;BME280;12423;48.768;8.850;2023-01-19T10:51:01;96116.47;;;-0.09;100.00
24306;BME280;12423;48.768;8.850;2023-01-19T10:53:04;96121.53;;;0.10;100.00